Time;durP1;ratioP1;P1;durP2;ratioP2;P2;SDS_P1;SDS_P2;PMS_P1;PMS_P2;Temp;Humidity;BMP_temperature;BMP_pressure;BME280_temperature;BME280_humidity;BME280_pressure;Samples;Min_cycle;Max_cycle;Signal;HPM_P1;HPM_P2
2022/10/15 00:02:17;;;;;;;8.30;5.67;;;14.40;99.90;;;;;;5053568;28;20218;-89
2022/10/15 00:04:44;;;;;;;8.37;5.77;;;14.50;99.90;;;;;;5034607;28;20239;-90
2022/10/15 00:07:11;;;;;;;6.33;5.30;;;14.40;99.90;;;;;;5049177;28;20222;-88
2022/10/15 00:09:38;;;;;;;7.10;5.40;;;14.40;99.90;;;;;;5049476;28;20214;-88
2022/10/15 00:12:05;;;;;;;7.53;5.33;;;14.40;99.90;;;;;;5039057;28;20215;-89
2022/10/15 00:14:32;;;;;;;7.07;5.43;;;14.40;99.90;;;;;;5053143;28;20229;-88
2022/10/15 00:17:00;;;;;;;7.10;5.47;;;14.30;99.90;;;;;;5053369;28;20220;-89
2022/10/15 00:19:27;;;;;;;8.67;5.40;;;14.30;99.90;;;;;;5053699;28;20633;-89
2022/10/15 00:21:54;;;;;;;7.20;4.93;;;14.30;99.90;;;;;;5052987;28;20214;-89
2022/10/15 00:24:20;;;;;;;10.13;6.07;;;14.30;99.90;;;;;;5044606;28;20231;-89
2022/10/15 00:26:47;;;;;;;6.47;5.37;;;14.30;99.90;;;;;;5041763;28;20219;-89
2022/10/15 00:29:14;;;;;;;8.40;5.67;;;14.30;99.90;;;;;;5033705;28;20200;-89
2022/10/15 00:31:41;;;;;;;8.03;5.60;;;14.30;99.90;;;;;;5044669;28;20206;-89
2022/10/15 00:34:09;;;;;;;7.73;5.37;;;14.30;99.90;;;;;;5052854;28;20223;-89
2022/10/15 00:36:36;;;;;;;7.57;5.80;;;14.30;99.90;;;;;;5046330;28;20207;-89
2022/10/15 00:39:05;;;;;;;7.10;5.27;;;14.30;99.90;;;;;;5051929;28;20222;-89
2022/10/15 00:41:35;;;;;;;8.10;5.17;;;14.30;99.90;;;;;;5049922;28;20204;-89
2022/10/15 00:44:23;;;;;;;7.23;5.40;;;14.30;99.90;;;;;;5033044;28;20239;-89
2022/10/15 00:46:53;;;;;;;7.57;5.00;;;14.30;99.90;;;;;;5044732;28;20221;-89
2022/10/15 00:49:24;;;;;;;7.60;5.37;;;14.30;99.90;;;;;;5051849;28;20215;-89
2022/10/15 00:51:55;;;;;;;7.23;5.70;;;14.30;99.90;;;;;;5048328;28;20212;-89
2022/10/15 00:54:25;;;;;;;7.13;5.83;;;14.40;99.90;;;;;;5048523;28;20215;-89
2022/10/15 00:56:51;;;;;;;7.90;5.33;;;14.40;99.90;;;;;;5043661;28;20203;-88
2022/10/15 00:59:23;;;;;;;7.60;5.93;;;14.30;99.90;;;;;;5033295;28;20222;-89
2022/10/15 01:01:52;;;;;;;8.20;5.87;;;14.30;99.90;;;;;;5044708;28;20289;-89
2022/10/15 01:04:19;;;;;;;8.00;5.77;;;14.40;99.90;;;;;;5052389;28;20227;-88
2022/10/15 01:06:46;;;;;;;7.80;5.73;;;14.30;99.90;;;;;;5044706;28;20216;-89
2022/10/15 01:09:13;;;;;;;6.97;5.33;;;14.50;99.90;;;;;;5052030;28;20676;-89
2022/10/15 01:11:45;;;;;;;10.40;5.83;;;14.30;99.90;;;;;;5050648;28;20588;-89
2022/10/15 01:14:27;;;;;;;8.00;5.90;;;14.20;99.90;;;;;;5047903;28;20223;-88
2022/10/15 01:17:04;;;;;;;8.03;5.83;;;14.30;99.90;;;;;;5046233;28;20200;-89
2022/10/15 01:19:52;;;;;;;8.23;6.10;;;14.20;99.90;;;;;;5042806;28;20222;-89
2022/10/15 01:22:35;;;;;;;8.33;6.10;;;14.10;99.90;;;;;;5039217;28;20319;-89
2022/10/15 01:25:23;;;;;;;8.27;5.83;;;14.20;99.90;;;;;;5045318;28;20226;-88
2022/10/15 01:27:55;;;;;;;9.63;6.50;;;14.10;99.90;;;;;;5035256;28;20225;-88
2022/10/15 01:30:25;;;;;;;8.80;5.80;;;14.20;99.90;;;;;;5047787;28;20594;-88
2022/10/15 01:33:07;;;;;;;9.33;6.17;;;14.10;99.90;;;;;;5045679;28;20191;-89
2022/10/15 01:35:46;;;;;;;8.77;6.63;;;14.00;99.90;;;;;;5049364;28;20210;-89
2022/10/15 01:38:31;;;;;;;8.97;5.57;;;14.00;99.90;;;;;;5040953;28;20214;-89
2022/10/15 01:41:02;;;;;;;11.97;7.13;;;14.00;99.90;;;;;;5044630;28;20259;-88
2022/10/15 01:43:35;;;;;;;10.90;6.70;;;13.90;99.90;;;;;;5051783;28;20222;-88
2022/10/15 01:46:08;;;;;;;10.13;6.83;;;13.90;99.90;;;;;;5052089;28;20593;-88
2022/10/15 01:48:37;;;;;;;10.30;6.50;;;14.00;99.90;;;;;;5044156;28;20211;-88
2022/10/15 01:51:06;;;;;;;8.70;6.50;;;14.00;99.90;;;;;;5051451;28;20207;-88
2022/10/15 01:53:34;;;;;;;11.17;6.60;;;14.00;99.90;;;;;;5050919;28;20234;-88
2022/10/15 01:56:09;;;;;;;11.80;8.00;;;14.00;99.90;;;;;;5049637;28;20207;-85
2022/10/15 01:58:37;;;;;;;11.37;8.37;;;13.90;99.90;;;;;;5039338;28;20202;-88
2022/10/15 02:01:06;;;;;;;12.53;7.70;;;13.90;99.90;;;;;;5051273;28;20203;-88
2022/10/15 02:03:42;;;;;;;13.20;9.20;;;13.90;99.90;;;;;;5042041;28;20224;-89
2022/10/15 02:06:13;;;;;;;13.80;9.13;;;13.80;99.90;;;;;;5032341;28;20230;-88
2022/10/15 02:08:45;;;;;;;13.67;8.93;;;13.70;99.90;;;;;;5050219;28;20210;-89
2022/10/15 02:11:15;;;;;;;12.37;8.17;;;13.70;99.90;;;;;;5043173;28;20212;-89
2022/10/15 02:13:50;;;;;;;12.20;8.43;;;13.60;99.90;;;;;;5051139;28;20211;-89
2022/10/15 02:16:23;;;;;;;10.90;7.73;;;13.60;99.90;;;;;;5050483;28;20210;-88
2022/10/15 02:18:57;;;;;;;11.50;7.90;;;13.60;99.90;;;;;;5051600;28;20499;-88
2022/10/15 02:21:29;;;;;;;12.00;7.60;;;13.50;99.90;;;;;;5051833;28;20210;-89
2022/10/15 02:24:02;;;;;;;13.90;9.27;;;13.40;99.90;;;;;;5051376;28;20231;-89
2022/10/15 02:26:30;;;;;;;12.53;8.93;;;13.40;99.90;;;;;;5052109;28;20213;-89
2022/10/15 02:29:00;;;;;;;13.67;8.87;;;13.50;99.90;;;;;;5051858;28;20218;-88
2022/10/15 02:31:31;;;;;;;16.47;10.60;;;13.40;99.90;;;;;;5051251;28;20652;-90
2022/10/15 02:34:03;;;;;;;17.57;11.33;;;13.50;99.90;;;;;;5051998;28;20230;-89
2022/10/15 02:36:30;;;;;;;17.37;10.97;;;13.60;99.90;;;;;;5055487;28;20217;-88
2022/10/15 02:38:58;;;;;;;17.70;11.07;;;13.60;99.90;;;;;;5055801;28;20203;-89
2022/10/15 02:41:27;;;;;;;20.10;13.07;;;13.50;99.90;;;;;;5055507;28;20199;-89
2022/10/15 02:43:54;;;;;;;15.90;10.73;;;13.70;99.90;;;;;;5055351;28;20218;-89
2022/10/15 02:46:21;;;;;;;15.77;10.10;;;13.70;99.90;;;;;;5055095;28;20697;-89
2022/10/15 02:48:49;;;;;;;18.00;12.27;;;13.60;99.90;;;;;;5055479;28;20571;-89
2022/10/15 02:51:16;;;;;;;19.13;11.83;;;13.60;99.90;;;;;;5055267;28;20203;-88
2022/10/15 02:53:43;;;;;;;17.30;10.90;;;13.40;99.90;;;;;;5055434;28;20221;-88
2022/10/15 02:56:09;;;;;;;16.40;11.07;;;13.40;99.90;;;;;;5055437;28;20211;-89
2022/10/15 02:58:36;;;;;;;21.03;11.87;;;13.30;99.90;;;;;;5055172;28;20218;-89
2022/10/15 03:01:03;;;;;;;20.03;13.03;;;13.30;99.90;;;;;;5055154;28;20206;-89
2022/10/15 03:03:30;;;;;;;21.27;11.90;;;13.30;99.90;;;;;;5054909;28;20227;-89
2022/10/15 03:05:58;;;;;;;23.10;11.77;;;13.20;99.90;;;;;;5055357;28;20223;-89
2022/10/15 03:08:25;;;;;;;18.57;11.13;;;13.20;99.90;;;;;;5054982;28;20205;-88
2022/10/15 03:10:52;;;;;;;17.53;11.93;;;13.20;99.90;;;;;;5055091;28;20718;-88
2022/10/15 03:13:19;;;;;;;19.33;12.67;;;13.10;99.90;;;;;;5054823;28;20722;-88
2022/10/15 03:15:45;;;;;;;19.33;11.57;;;13.20;99.90;;;;;;5054946;28;20207;-89
2022/10/15 03:18:12;;;;;;;19.73;12.10;;;13.10;99.90;;;;;;5054710;28;20195;-88
2022/10/15 03:20:39;;;;;;;17.57;11.87;;;13.20;99.90;;;;;;5054858;28;20210;-89
2022/10/15 03:23:07;;;;;;;20.03;12.17;;;13.20;99.90;;;;;;5054633;28;20225;-88
2022/10/15 03:25:34;;;;;;;17.33;11.17;;;13.20;99.90;;;;;;5055825;28;20214;-88
2022/10/15 03:28:01;;;;;;;17.53;10.80;;;13.00;99.90;;;;;;5054652;28;20234;-89
2022/10/15 03:30:28;;;;;;;18.63;12.13;;;13.10;99.90;;;;;;5054388;28;20211;-89
2022/10/15 03:32:55;;;;;;;18.40;11.57;;;13.10;99.90;;;;;;5054505;28;20664;-88
2022/10/15 03:35:22;;;;;;;19.60;12.50;;;13.20;99.90;;;;;;5054508;28;20203;-89
2022/10/15 03:37:49;;;;;;;19.90;12.67;;;13.20;99.90;;;;;;5054437;28;20328;-88
2022/10/15 03:40:17;;;;;;;17.67;11.13;;;13.10;99.90;;;;;;5054408;28;20207;-89
2022/10/15 03:42:44;;;;;;;19.23;11.03;;;13.30;99.90;;;;;;5054007;28;20195;-88
2022/10/15 03:45:11;;;;;;;19.30;12.47;;;13.10;99.90;;;;;;5054307;28;20226;-89
2022/10/15 03:47:38;;;;;;;17.33;11.07;;;13.10;99.90;;;;;;5047804;28;20207;-89
2022/10/15 03:50:05;;;;;;;19.70;12.47;;;13.00;99.90;;;;;;5052675;28;20205;-89
2022/10/15 03:52:32;;;;;;;21.50;13.67;;;13.00;99.90;;;;;;5053162;28;20207;-89
2022/10/15 03:54:59;;;;;;;18.73;11.73;;;13.10;99.90;;;;;;5047362;28;20233;-89
2022/10/15 03:57:27;;;;;;;18.50;12.40;;;13.10;99.90;;;;;;5053875;28;20206;-89
2022/10/15 03:59:54;;;;;;;18.33;11.33;;;13.00;99.90;;;;;;5037701;28;20194;-89
2022/10/15 04:02:21;;;;;;;17.57;11.43;;;13.00;99.90;;;;;;5047653;28;20212;-90
2022/10/15 04:04:48;;;;;;;16.70;10.90;;;13.00;99.90;;;;;;5036882;28;20229;-88
2022/10/15 04:07:14;;;;;;;18.17;11.40;;;13.00;99.90;;;;;;5041402;28;20220;-89
2022/10/15 04:09:41;;;;;;;18.03;11.40;;;13.00;99.90;;;;;;5034604;28;20212;-89
2022/10/15 04:12:08;;;;;;;25.50;11.67;;;13.00;99.90;;;;;;5041985;28;20219;-89
2022/10/15 04:14:36;;;;;;;19.13;10.50;;;13.00;99.90;;;;;;5033720;28;20228;-89
2022/10/15 04:17:03;;;;;;;17.43;10.53;;;13.00;99.90;;;;;;5033496;28;20215;-88
2022/10/15 04:19:30;;;;;;;18.03;10.90;;;12.90;99.90;;;;;;5052743;28;20214;-89
2022/10/15 04:21:57;;;;;;;17.27;11.23;;;12.80;99.90;;;;;;5053635;28;20229;-89
2022/10/15 04:24:24;;;;;;;16.83;9.90;;;12.90;99.90;;;;;;5052427;28;20223;-90
2022/10/15 04:26:51;;;;;;;18.00;11.43;;;12.90;99.90;;;;;;5052582;28;20199;-89
2022/10/15 04:29:18;;;;;;;19.53;12.00;;;12.80;99.90;;;;;;5053143;28;20199;-90
2022/10/15 04:31:46;;;;;;;16.77;10.93;;;12.80;99.90;;;;;;5051934;28;20207;-89
2022/10/15 04:34:13;;;;;;;18.70;11.57;;;12.70;99.90;;;;;;5052419;28;20248;-89
2022/10/15 04:36:40;;;;;;;17.90;10.97;;;12.80;99.90;;;;;;5053074;28;20207;-88
2022/10/15 04:39:07;;;;;;;18.40;11.77;;;13.00;99.90;;;;;;5053313;28;20214;-89
2022/10/15 04:41:33;;;;;;;17.37;11.17;;;13.00;99.90;;;;;;5046394;28;20215;-88
2022/10/15 04:44:00;;;;;;;18.27;11.67;;;12.80;99.90;;;;;;5043829;28;20616;-89
2022/10/15 04:46:27;;;;;;;18.20;11.30;;;12.90;99.90;;;;;;5051822;28;20215;-89
2022/10/15 04:48:56;;;;;;;18.20;11.77;;;12.80;99.90;;;;;;5046864;28;20203;-88
2022/10/15 04:51:24;;;;;;;17.50;11.30;;;12.90;99.90;;;;;;5038233;28;20452;-88
2022/10/15 04:53:51;;;;;;;17.10;10.83;;;12.90;99.90;;;;;;5041161;28;20227;-89
2022/10/15 04:56:20;;;;;;;16.77;11.27;;;12.80;99.90;;;;;;5048366;28;20200;-89
2022/10/15 04:58:48;;;;;;;19.23;12.07;;;12.70;99.90;;;;;;5051578;28;20230;-88
2022/10/15 05:01:16;;;;;;;19.47;10.97;;;12.80;99.90;;;;;;5050623;28;20709;-88
2022/10/15 05:03:45;;;;;;;17.53;10.93;;;12.80;99.90;;;;;;5052408;28;20647;-89
2022/10/15 05:06:15;;;;;;;20.30;12.43;;;12.70;99.90;;;;;;5051381;28;20222;-88
2022/10/15 05:08:42;;;;;;;19.00;11.63;;;12.70;99.90;;;;;;5045891;28;20235;-89
2022/10/15 05:11:11;;;;;;;18.87;11.33;;;12.70;99.90;;;;;;5052485;28;20202;-88
2022/10/15 05:13:38;;;;;;;20.40;13.07;;;12.70;99.90;;;;;;5042364;28;20821;-88
2022/10/15 05:16:13;;;;;;;18.87;12.23;;;12.70;99.90;;;;;;5032450;28;20204;-88
2022/10/15 05:18:41;;;;;;;19.10;11.93;;;12.70;99.90;;;;;;5052494;28;20648;-88
2022/10/15 05:21:08;;;;;;;19.40;11.83;;;12.60;99.90;;;;;;5048163;28;20208;-88
2022/10/15 05:23:37;;;;;;;17.53;11.03;;;12.60;99.90;;;;;;5051778;28;20707;-89
2022/10/15 05:26:06;;;;;;;19.17;9.77;;;12.60;99.90;;;;;;5048024;28;20310;-89
2022/10/15 05:28:33;;;;;;;33.43;9.30;;;12.40;99.90;;;;;;5050510;28;20203;-88
2022/10/15 05:31:04;;;;;;;12.80;8.30;;;12.20;99.90;;;;;;5038993;28;20222;-87
2022/10/15 05:33:31;;;;;;;160.40;12.50;;;12.00;99.90;;;;;;5045069;28;20242;-87
2022/10/15 05:35:58;;;;;;;12.77;8.97;;;11.90;99.90;;;;;;5036569;28;20211;-88
2022/10/15 05:38:24;;;;;;;18.37;7.07;;;12.10;99.90;;;;;;5049017;28;20199;-87
2022/10/15 05:40:52;;;;;;;12.87;8.60;;;12.10;99.90;;;;;;5050896;28;20191;-86
2022/10/15 05:43:19;;;;;;;19.73;11.60;;;12.30;99.90;;;;;;5052360;28;20222;-85
2022/10/15 05:45:46;;;;;;;20.33;12.63;;;12.10;99.90;;;;;;5051288;28;20229;-86
2022/10/15 05:48:13;;;;;;;15.77;9.90;;;12.10;99.90;;;;;;5039018;28;20211;-86
2022/10/15 05:50:40;;;;;;;14.63;9.73;;;12.20;99.90;;;;;;5043364;28;20199;-86
2022/10/15 05:53:07;;;;;;;19.20;10.90;;;12.10;99.90;;;;;;5040538;28;20318;-86
2022/10/15 05:55:34;;;;;;;26.10;17.07;;;12.30;99.90;;;;;;5042651;28;20206;-85
2022/10/15 05:58:04;;;;;;;20.57;11.80;;;12.30;99.90;;;;;;5040558;28;20278;-86
2022/10/15 06:00:31;;;;;;;15.37;10.47;;;12.30;99.90;;;;;;5046568;28;20283;-87
2022/10/15 06:03:00;;;;;;;16.50;10.63;;;12.40;99.90;;;;;;5046375;28;20206;-87
2022/10/15 06:05:27;;;;;;;13.23;8.47;;;12.30;99.90;;;;;;5046741;28;20227;-87
2022/10/15 06:07:54;;;;;;;19.30;9.67;;;12.10;99.90;;;;;;5040638;28;20257;-87
2022/10/15 06:10:22;;;;;;;24.37;9.40;;;12.00;99.90;;;;;;5050938;28;20195;-86
2022/10/15 06:12:50;;;;;;;14.83;9.60;;;11.90;99.90;;;;;;5048634;28;20229;-87
2022/10/15 06:15:19;;;;;;;15.07;9.03;;;12.00;99.90;;;;;;5048414;28;20683;-86
2022/10/15 06:17:53;;;;;;;14.07;9.37;;;12.00;99.90;;;;;;5055940;28;20202;-87
2022/10/15 06:20:20;;;;;;;16.47;10.57;;;12.10;99.90;;;;;;5050266;28;20198;-86
2022/10/15 06:22:49;;;;;;;17.00;10.17;;;12.20;99.90;;;;;;5053730;28;20213;-87
2022/10/15 06:25:18;;;;;;;14.73;9.33;;;12.40;99.90;;;;;;5048677;28;20207;-87
2022/10/15 06:27:44;;;;;;;15.83;9.80;;;12.40;99.90;;;;;;5054653;28;20202;-86
2022/10/15 06:30:11;;;;;;;17.40;10.40;;;12.40;99.90;;;;;;5044715;28;20708;-87
2022/10/15 06:32:47;;;;;;;16.17;9.90;;;12.40;99.90;;;;;;5054620;28;20210;-86
2022/10/15 06:35:13;;;;;;;16.17;10.23;;;12.50;99.90;;;;;;5052319;28;20202;-87
2022/10/15 06:37:43;;;;;;;18.77;11.43;;;12.60;99.90;;;;;;5053055;28;20697;-87
2022/10/15 06:40:14;;;;;;;17.20;11.53;;;12.70;99.90;;;;;;5051381;28;20206;-87
2022/10/15 06:42:41;;;;;;;17.93;10.93;;;12.50;99.90;;;;;;5054091;28;20203;-87
2022/10/15 06:45:13;;;;;;;17.70;11.17;;;12.50;99.90;;;;;;5052076;28;20219;-87
2022/10/15 06:47:42;;;;;;;16.93;11.13;;;12.50;99.90;;;;;;5053009;28;20249;-87
2022/10/15 06:50:12;;;;;;;20.37;11.37;;;12.50;99.90;;;;;;5053979;28;20897;-87
2022/10/15 06:52:41;;;;;;;19.07;12.03;;;12.50;99.90;;;;;;5050104;28;20213;-87
2022/10/15 06:55:08;;;;;;;19.13;11.10;;;12.60;99.90;;;;;;5048387;28;20250;-87
2022/10/15 06:57:35;;;;;;;17.83;11.70;;;12.60;99.90;;;;;;5048597;28;20204;-86
2022/10/15 07:00:02;;;;;;;18.00;10.87;;;12.70;99.90;;;;;;5047956;28;20973;-87
2022/10/15 07:02:29;;;;;;;18.37;11.83;;;12.90;99.90;;;;;;5048989;28;20211;-86
2022/10/15 07:04:58;;;;;;;18.07;11.20;;;12.90;99.90;;;;;;5052119;28;20218;-87
2022/10/15 07:07:25;;;;;;;19.90;12.07;;;12.80;99.90;;;;;;5050833;28;20318;-87
2022/10/15 07:09:55;;;;;;;17.67;11.57;;;12.90;99.90;;;;;;5052176;28;20218;-86
2022/10/15 07:12:24;;;;;;;18.57;11.80;;;12.90;99.90;;;;;;5052499;28;20278;-86
2022/10/15 07:14:50;;;;;;;20.17;11.77;;;13.10;99.90;;;;;;5050684;28;20222;-86
2022/10/15 07:17:20;;;;;;;19.73;11.10;;;13.00;99.90;;;;;;5048664;28;20286;-86
2022/10/15 07:19:49;;;;;;;19.90;11.63;;;13.10;99.90;;;;;;5050693;28;20195;-86
2022/10/15 07:22:17;;;;;;;16.13;10.57;;;13.10;99.90;;;;;;5044183;28;20199;-87
2022/10/15 07:24:44;;;;;;;18.53;11.87;;;13.20;99.90;;;;;;5041642;28;20226;-89
2022/10/15 07:27:15;;;;;;;17.87;10.87;;;13.20;99.90;;;;;;5050226;28;20230;-89
2022/10/15 07:29:42;;;;;;;17.33;10.77;;;13.30;99.90;;;;;;5051046;28;20211;-89
2022/10/15 07:32:08;;;;;;;18.37;12.03;;;13.30;99.90;;;;;;5049379;28;20211;-89
2022/10/15 07:34:38;;;;;;;18.27;11.57;;;13.40;99.90;;;;;;5044395;28;20230;-89
2022/10/15 07:37:07;;;;;;;18.27;11.57;;;13.40;99.90;;;;;;5046309;28;20584;-88
2022/10/15 07:39:37;;;;;;;26.03;17.77;;;13.50;99.90;;;;;;5047688;28;20199;-88
2022/10/15 07:42:06;;;;;;;25.83;16.03;;;13.60;99.90;;;;;;5051658;28;20211;-88
2022/10/15 07:44:33;;;;;;;19.80;12.93;;;13.70;99.90;;;;;;5044305;28;20225;-88
2022/10/15 07:47:00;;;;;;;18.13;11.87;;;13.70;99.90;;;;;;5045042;28;20277;-88
2022/10/15 07:49:29;;;;;;;21.63;13.80;;;13.80;99.90;;;;;;5046244;28;20696;-88
2022/10/15 07:51:56;;;;;;;20.10;12.47;;;13.90;99.90;;;;;;5043855;28;20206;-87
2022/10/15 07:54:23;;;;;;;18.90;12.07;;;13.90;99.90;;;;;;5045456;28;20231;-89
2022/10/15 07:56:53;;;;;;;20.50;13.30;;;14.00;99.90;;;;;;5041682;28;20208;-89
2022/10/15 07:59:20;;;;;;;18.97;12.30;;;14.00;99.90;;;;;;5047367;28;20290;-88
2022/10/15 08:01:50;;;;;;;18.57;11.77;;;14.10;99.90;;;;;;5051073;28;20199;-88
2022/10/15 08:04:19;;;;;;;20.27;12.10;;;14.20;99.90;;;;;;5047547;28;20223;-88
2022/10/15 08:06:49;;;;;;;17.50;11.67;;;14.30;99.90;;;;;;5043953;28;20226;-87
2022/10/15 08:09:18;;;;;;;20.13;12.33;;;14.30;99.90;;;;;;5051355;28;20675;-88
2022/10/15 08:11:47;;;;;;;20.43;12.67;;;14.40;99.90;;;;;;5050266;28;20214;-88
2022/10/15 08:14:16;;;;;;;23.13;14.10;;;14.50;99.90;;;;;;5049482;28;20314;-88
2022/10/15 08:16:43;;;;;;;22.03;13.77;;;14.70;99.90;;;;;;5051125;28;20199;-88
2022/10/15 08:19:12;;;;;;;23.30;14.63;;;14.70;99.90;;;;;;5044034;28;20657;-88
2022/10/15 08:21:41;;;;;;;23.38;15.68;;;14.90;99.90;;;;;;5047281;28;20301;-88
2022/10/15 08:24:07;;;;;;;23.60;15.53;;;14.90;99.90;;;;;;5046438;28;20226;-88
2022/10/15 08:26:37;;;;;;;24.55;15.70;;;15.00;99.90;;;;;;5048741;28;20234;-88
2022/10/15 08:29:06;;;;;;;22.07;14.80;;;15.00;99.90;;;;;;5046015;28;20211;-88
2022/10/15 08:31:35;;;;;;;22.52;15.52;;;15.10;99.90;;;;;;5045363;28;20199;-88
2022/10/15 08:34:03;;;;;;;25.20;16.97;;;15.30;99.90;;;;;;5047596;28;20787;-88
2022/10/15 08:36:30;;;;;;;23.83;16.50;;;15.40;99.90;;;;;;5046480;28;20277;-88
2022/10/15 08:38:56;;;;;;;24.55;17.30;;;15.40;99.90;;;;;;5042778;28;20204;-88
2022/10/15 08:41:32;;;;;;;23.27;17.38;;;15.60;99.90;;;;;;5046148;28;20203;-88
2022/10/15 08:44:00;;;;;;;24.20;18.23;;;15.60;99.90;;;;;;5037994;28;20313;-88
2022/10/15 08:46:38;;;;;;;24.23;17.40;;;15.60;99.90;;;;;;5051247;28;20223;-89
2022/10/15 08:49:13;;;;;;;24.98;17.85;;;15.70;99.90;;;;;;5045688;28;20217;-87
2022/10/15 08:51:48;;;;;;;24.17;17.40;;;15.70;99.90;;;;;;5048030;28;20207;-88
2022/10/15 08:54:20;;;;;;;24.10;16.88;;;15.80;99.90;;;;;;5045159;28;20253;-88
2022/10/15 08:56:50;;;;;;;25.80;18.17;;;15.80;99.90;;;;;;5044492;28;20202;-89
2022/10/15 08:59:29;;;;;;;24.38;17.90;;;15.70;99.90;;;;;;5048005;28;20211;-88
2022/10/15 09:02:02;;;;;;;25.42;17.55;;;15.90;99.90;;;;;;5042657;28;20429;-89
2022/10/15 09:04:36;;;;;;;24.55;17.17;;;16.00;99.90;;;;;;5045267;28;20215;-87
2022/10/15 09:07:09;;;;;;;24.75;18.60;;;16.00;99.90;;;;;;5048291;28;20233;-89
2022/10/15 09:09:44;;;;;;;24.08;16.95;;;16.00;99.90;;;;;;5045414;28;20199;-88
2022/10/15 09:12:28;;;;;;;23.38;16.83;;;16.00;99.90;;;;;;5044524;28;20293;-89
2022/10/15 09:14:58;;;;;;;25.02;16.85;;;16.00;99.90;;;;;;5046855;28;20742;-88
2022/10/15 09:17:30;;;;;;;22.23;15.70;;;16.00;99.90;;;;;;5045639;28;20498;-88
2022/10/15 09:20:03;;;;;;;21.80;15.48;;;16.20;99.90;;;;;;5044995;28;20210;-88
2022/10/15 09:22:32;;;;;;;23.25;16.10;;;16.00;99.90;;;;;;5045938;28;20226;-88
2022/10/15 09:25:13;;;;;;;20.15;14.60;;;16.10;99.90;;;;;;5041753;28;20230;-88
2022/10/15 09:27:43;;;;;;;21.48;14.65;;;16.30;99.90;;;;;;5047225;28;20703;-87
2022/10/15 09:30:26;;;;;;;20.33;13.90;;;16.40;99.90;;;;;;5044538;28;20203;-87
2022/10/15 09:33:05;;;;;;;21.33;14.20;;;16.50;99.90;;;;;;5041058;28;20195;-88
2022/10/15 09:35:37;;;;;;;21.20;15.15;;;16.60;99.90;;;;;;5040022;28;20557;-88
2022/10/15 09:38:20;;;;;;;19.65;13.60;;;16.70;99.90;;;;;;5047489;28;20207;-88
2022/10/15 09:41:04;;;;;;;21.35;15.00;;;16.70;99.90;;;;;;5039472;28;20199;-88
2022/10/15 09:43:36;;;;;;;21.17;14.40;;;16.60;99.90;;;;;;5039874;28;20218;-88
2022/10/15 09:46:06;;;;;;;19.02;13.18;;;16.50;99.90;;;;;;5048825;28;20210;-89
2022/10/15 09:48:40;;;;;;;19.75;13.82;;;16.60;99.90;;;;;;5038930;28;20290;-89
2022/10/15 09:51:18;;;;;;;17.00;11.77;;;16.70;99.90;;;;;;5046109;28;20203;-88
2022/10/15 09:53:52;;;;;;;18.88;12.88;;;16.70;99.90;;;;;;5049179;28;20230;-88
2022/10/15 09:56:23;;;;;;;16.40;10.90;;;16.70;99.90;;;;;;5042979;28;20207;-88
2022/10/15 09:58:53;;;;;;;15.70;10.88;;;16.70;99.90;;;;;;5041840;28;20287;-88
2022/10/15 10:01:21;;;;;;;14.35;10.23;;;16.80;99.90;;;;;;5045400;28;20203;-89
2022/10/15 10:04:11;;;;;;;12.82;9.43;;;16.90;99.90;;;;;;5047556;28;20574;-88
2022/10/15 10:06:44;;;;;;;13.07;9.60;;;16.90;99.90;;;;;;5039330;28;20227;-88
2022/10/15 10:09:19;;;;;;;13.15;10.00;;;16.90;99.90;;;;;;5046762;28;20221;-88
2022/10/15 10:11:51;;;;;;;14.25;9.57;;;16.90;99.90;;;;;;5044059;28;20257;-88
2022/10/15 10:14:29;;;;;;;12.68;9.38;;;16.80;99.90;;;;;;5045088;28;20235;-88
2022/10/15 10:17:18;;;;;;;13.38;10.00;;;17.00;99.90;;;;;;5042310;28;20588;-89
2022/10/15 10:20:04;;;;;;;14.25;9.63;;;17.20;99.90;;;;;;5040519;28;20241;-88
2022/10/15 10:22:42;;;;;;;14.70;10.50;;;17.30;99.90;;;;;;5049103;28;20203;-88
2022/10/15 10:25:31;;;;;;;14.85;10.00;;;17.80;99.90;;;;;;5040737;28;20223;-88
2022/10/15 10:28:06;;;;;;;16.67;11.05;;;18.10;99.90;;;;;;5054712;28;20214;-87
2022/10/15 10:30:38;;;;;;;15.93;11.32;;;18.10;99.90;;;;;;5046126;28;20686;-88
2022/10/15 10:33:13;;;;;;;15.77;11.60;;;18.60;99.90;;;;;;5048577;28;20241;-88
2022/10/15 10:35:48;;;;;;;15.82;11.57;;;18.60;99.90;;;;;;5047099;28;20203;-89
2022/10/15 10:38:22;;;;;;;15.45;11.68;;;18.90;99.90;;;;;;5037099;28;20259;-89
2022/10/15 10:40:56;;;;;;;14.38;10.60;;;19.00;99.90;;;;;;5046179;28;20548;-89
2022/10/15 10:43:29;;;;;;;13.88;10.55;;;19.00;99.90;;;;;;5042231;28;20664;-88
2022/10/15 10:46:01;;;;;;;13.98;10.18;;;19.00;99.90;;;;;;5046050;28;20736;-88
2022/10/15 10:48:37;;;;;;;13.15;9.95;;;18.90;99.90;;;;;;5042430;28;20223;-88
2022/10/15 10:51:08;;;;;;;11.95;8.55;;;19.00;99.90;;;;;;5041273;28;20672;-89
2022/10/15 10:53:46;;;;;;;10.65;8.18;;;19.20;99.90;;;;;;5043780;28;20223;-88
2022/10/15 10:56:14;;;;;;;12.73;8.65;;;19.20;99.90;;;;;;5041137;28;20282;-88
2022/10/15 10:58:42;;;;;;;10.90;7.38;;;19.00;99.90;;;;;;5051610;28;20199;-88
2022/10/15 11:01:12;;;;;;;9.93;7.72;;;19.10;99.90;;;;;;5044583;28;20647;-89
2022/10/15 11:03:41;;;;;;;8.80;7.10;;;19.20;94.00;;;;;;5047692;28;20218;-88
2022/10/15 11:06:45;;;;;;;9.70;7.03;;;19.50;25.30;;;;;;5047556;28;20233;-88
2022/10/15 11:09:31;;;;;;;8.88;7.00;;;19.60;1.00;;;;;;5042019;28;20203;-88
2022/10/15 11:12:11;;;;;;;8.55;7.05;;;20.00;1.00;;;;;;5047046;28;20199;-88
2022/10/15 11:14:47;;;;;;;9.13;6.80;;;20.30;1.00;;;;;;5047998;28;20429;-88
2022/10/15 11:17:25;;;;;;;7.43;6.30;;;20.30;1.00;;;;;;5048283;28;20210;-88
2022/10/15 11:19:58;;;;;;;7.18;5.63;;;20.40;1.00;;;;;;5045082;28;20980;-88
2022/10/15 11:22:43;;;;;;;7.20;5.97;;;20.40;99.90;;;;;;5049995;28;20227;-89
2022/10/15 11:25:24;;;;;;;7.05;5.47;;;20.50;1.00;;;;;;5040064;28;20227;-89
2022/10/15 11:28:16;;;;;;;5.38;4.65;;;20.90;1.00;;;;;;5047147;28;20229;-88
2022/10/15 11:30:53;;;;;;;6.20;4.78;;;20.80;1.00;;;;;;5051855;28;20213;-89
2022/10/15 11:33:36;;;;;;;7.25;4.97;;;20.90;1.00;;;;;;5046205;28;20582;-89
2022/10/15 11:36:18;;;;;;;6.07;5.10;;;20.40;1.00;;;;;;5046683;28;20202;-89
2022/10/15 11:38:55;;;;;;;6.75;5.45;;;19.70;99.90;;;;;;5048571;28;20197;-89
2022/10/15 11:41:41;;;;;;;5.63;4.90;;;19.80;1.00;;;;;;5049481;28;20209;-89
2022/10/15 11:44:37;;;;;;;5.30;4.80;;;19.90;99.90;;;;;;5049075;28;20269;-88
2022/10/15 11:47:21;;;;;;;5.32;4.82;;;19.60;1.00;;;;;;5046738;28;20233;-89
2022/10/15 11:50:03;;;;;;;6.03;4.70;;;19.30;1.00;;;;;;5049620;28;20197;-88
2022/10/15 11:52:50;;;;;;;5.28;4.78;;;19.70;99.90;;;;;;5044032;28;20663;-89
2022/10/15 11:55:21;;;;;;;5.45;4.85;;;20.40;99.90;;;;;;5044880;28;20199;-88
2022/10/15 11:57:53;;;;;;;4.93;4.40;;;20.30;1.00;;;;;;5048986;28;20199;-89
2022/10/15 12:00:32;;;;;;;5.95;4.35;;;20.20;1.00;;;;;;5048796;28;20206;-88
2022/10/15 12:03:07;;;;;;;5.50;4.72;;;19.90;1.00;;;;;;5052147;28;20202;-89
2022/10/15 12:05:37;;;;;;;4.65;4.00;;;19.60;1.00;;;;;;5046019;28;20206;-88
2022/10/15 12:08:06;;;;;;;4.43;3.75;;;19.80;99.90;;;;;;5045835;28;20225;-89
2022/10/15 12:11:03;;;;;;;4.10;3.70;;;20.80;99.90;;;;;;5048344;28;20205;-89
2022/10/15 12:13:39;;;;;;;4.22;3.83;;;20.60;99.90;;;;;;5047232;28;20250;-89
2022/10/15 12:16:19;;;;;;;4.13;3.20;;;21.30;99.90;;;;;;5044630;28;20284;-89
2022/10/15 12:18:57;;;;;;;6.40;3.33;;;22.00;1.00;;;;;;5047477;28;20198;-89
2022/10/15 12:21:34;;;;;;;3.30;3.00;;;22.10;1.00;;;;;;5045728;28;20209;-88
2022/10/15 12:24:03;;;;;;;3.60;3.30;;;22.10;99.90;;;;;;5050391;28;20245;-89
2022/10/15 12:26:35;;;;;;;3.80;3.28;;;22.10;99.90;;;;;;5045795;28;20249;-89
2022/10/15 12:29:05;;;;;;;3.90;3.30;;;23.50;65.50;;;;;;5048931;28;20223;-89
2022/10/15 12:31:50;;;;;;;3.53;2.95;;;24.60;1.00;;;;;;5047926;28;20680;-88
2022/10/15 12:34:32;;;;;;;3.55;3.25;;;24.80;1.00;;;;;;5047675;28;20261;-88
2022/10/15 12:37:01;;;;;;;5.57;3.10;;;24.80;1.00;;;;;;5042732;28;20191;-89
2022/10/15 12:39:30;;;;;;;3.88;3.40;;;23.30;1.00;;;;;;5039927;28;20207;-89
2022/10/15 12:41:59;;;;;;;4.20;3.80;;;23.70;1.00;;;;;;5042575;28;20202;-90
2022/10/15 12:44:33;;;;;;;3.63;3.30;;;23.50;1.00;;;;;;5045142;28;20627;-89
2022/10/15 12:47:02;;;;;;;3.38;3.08;;;23.10;1.00;;;;;;5045581;28;20196;-89
2022/10/15 12:50:02;;;;;;;4.18;3.65;;;21.90;1.00;;;;;;5050007;28;20290;-88
2022/10/15 12:52:56;;;;;;;4.03;3.63;;;20.90;1.00;;;;;;5039953;28;20199;-89
2022/10/15 12:55:35;;;;;;;3.85;3.45;;;20.80;1.00;;;;;;5044429;28;20206;-88
2022/10/15 12:58:22;;;;;;;3.67;3.30;;;20.60;1.00;;;;;;5044928;28;20935;-89